Latest Weather Observations for Geelong Racecourse

IDV60901

Issued at 9:21 pm EST Thursday 30 June 2022 (issued every 10 minutes, with the page automatically refreshed every 10 minutes)

About weather observations | Map of Melbourne area stations | Latest observations for Melbourne area | Other Formats
Station Details ID: 087184 Name: GEELONG RACECOURSE Lat: -38.17 Lon: 144.38 Height: 12.9 m
Data from the previous 72 hours. | See also: Recent months at Geelong Racecourse
Date/Time
EST
Temp
°C
App
Temp
°C
Dew
Point
°C
Rel
Hum
%
Delta-T
°C
Wind Press
QNH
hPa
Press
MSL
hPa
Rain since
9am
mm
Dir  Spd
km/h
Gust
km/h
Spd
kts
Gust
kts
30/09:00pm 11.5 8.2 8.2 80 1.6 S 15 20 8 11 1027.9 1028.0 0.0
30/08:30pm 11.3 9.3 8.7 84 1.3 S 9 15 5 8 1027.8 1027.9 0.0
30/08:00pm 10.9 9.4 9.2 89 0.8 S 7 9 4 5 1027.5 1027.6 0.0
30/07:30pm 10.9 9.1 9.3 90 0.8 S 9 13 5 7 1027.4 1027.5 0.0
30/07:00pm 11.3 8.8 9.6 89 0.9 S 13 22 7 12 1027.0 1027.0 0.0
30/06:30pm 11.5 8.3 10.1 91 0.7 S 17 22 9 12 1026.7 1026.7 0.0
30/06:00pm 11.4 9.3 9.8 90 0.8 SW 11 17 6 9 1026.1 1026.1 0.0
30/05:30pm 11.5 9.3 9.4 87 1.1 SW 11 17 6 9 1025.9 1025.9 0.0
30/05:00pm 12.0 9.8 9.4 84 1.3 SSW 11 19 6 10 1025.7 1025.7 0.0
30/04:30pm 12.3 9.8 8.4 77 1.9 S 11 15 6 8 1025.3 1025.3 0.0
30/04:00pm 12.9 10.4 8.2 73 2.3 S 11 15 6 8 1025.1 1025.1 0.0
30/03:30pm 13.3 10.1 8.4 72 2.4 S 15 19 8 10 1025.0 1025.0 0.0
30/03:00pm 13.4 10.7 7.2 66 3.0 S 11 17 6 9 1024.8 1024.8 0.0
30/02:30pm 13.9 11.9 7.2 64 3.3 NE 7 11 4 6 1024.6 1024.6 0.0
30/02:00pm 14.5 12.7 7.3 62 3.5 NE 6 9 3 5 1024.6 1024.6 0.0
30/01:30pm 14.9 13.9 7.5 61 3.7 ESE 2 6 1 3 1024.8 1024.8 0.0
30/01:00pm 14.2 13.2 7.3 63 3.4 ESE 2 4 1 2 1025.1 1025.1 0.0
30/12:30pm 14.2 12.7 6.8 61 3.6 N 4 7 2 4 1025.2 1025.2 0.0
30/12:00pm 13.3 11.5 7.3 67 2.9 NNW 6 9 3 5 1025.5 1025.5 0.0
30/11:30am 12.4 10.6 7.1 70 2.6 NNW 6 9 3 5 1025.5 1025.5 0.0
30/11:00am 11.0 8.9 6.6 74 2.1 NW 7 11 4 6 1025.6 1025.6 0.0
30/10:30am 10.4 8.2 6.2 75 2.0 NNW 7 11 4 6 1025.7 1025.7 0.0
30/10:00am 9.2 7.1 5.9 80 1.5 NW 6 9 3 5 1025.5 1025.5 0.0
30/09:30am 8.7 6.0 5.6 81 1.4 NW 9 15 5 8 1025.2 1025.2 0.0
30/09:00am 7.9 5.5 5.4 84 1.1 NNW 7 9 4 5 1024.8 1024.8 0.0
30/08:30am 6.8 4.5 4.8 87 0.9 N 6 9 3 5 1024.6 1024.6 0.0
30/08:00am 4.8 2.6 3.6 92 0.5 WNW 4 6 2 3 1024.4 1024.4 0.0
30/07:30am 5.0 2.9 3.7 91 0.5 NNW 4 6 2 3 1024.2 1024.2 0.0
30/07:00am 4.8 2.6 3.6 92 0.5 NNW 4 6 2 3 1023.9 1023.9 0.0
30/06:30am 4.8 3.1 3.8 93 0.4 W 2 4 1 2 1023.6 1023.6 0.0
30/06:00am 4.7 3.3 3.5 92 0.5 CALM 0 0 0 0 1023.0 1023.0 0.0
30/05:30am 4.6 2.1 3.7 94 0.4 NNW 6 6 3 3 1022.4 1022.4 0.0
30/05:00am 3.4 1.8 2.7 95 0.3 CALM 0 2 0 1 1022.2 1022.2 0.0
30/04:30am 2.9 1.3 2.2 95 0.3 CALM 0 0 0 0 1022.1 1022.1 0.0
30/04:00am 2.7 1.0 1.8 94 0.3 CALM 0 0 0 0 1021.9 1021.9 0.0
30/03:30am 2.8 0.7 1.9 94 0.4 NW 2 4 1 2 1021.9 1021.9 0.0
30/03:00am 3.0 1.0 2.1 94 0.4 NW 2 6 1 3 1022.0 1022.0 0.0
30/02:30am 3.4 1.8 2.4 93 0.4 CALM 0 2 0 1 1022.2 1022.2 0.0
30/02:00am 3.8 1.8 2.5 91 0.5 NNW 2 6 1 3 1022.1 1022.1 0.0
30/01:30am 4.1 1.5 3.1 93 0.4 S 6 13 3 7 1021.7 1021.7 0.0
30/01:00am 5.2 3.8 3.4 88 0.7 CALM 0 4 0 2 1021.4 1021.4 0.0
30/12:30am 5.4 3.6 3.4 87 0.8 SW 2 6 1 3 1021.7 1021.7 0.0
30/12:00am 6.0 3.7 2.8 80 1.3 NW 4 6 2 3 1021.5 1021.5 0.0
 
Date/Time
EST
Temp
°C
App
Temp
°C
Dew
Point
°C
Rel
Hum
%
Delta-T
°C
Wind Press
QNH
hPa
Press
MSL
hPa
Rain since
9am
mm
Dir  Spd
km/h
Gust
km/h
Spd
kts
Gust
kts
29/11:30pm 7.9 5.2 3.9 76 1.7 NNE 7 11 4 6 1021.3 1021.3 0.0
29/11:00pm 7.7 5.8 5.0 83 1.2 NNE 4 6 2 3 1021.3 1021.3 0.0
29/10:30pm 7.8 5.9 4.7 81 1.4 NNE 4 6 2 3 1021.2 1021.2 0.0
29/10:00pm 7.9 5.4 4.7 80 1.4 NNE 7 9 4 5 1021.2 1021.2 0.0
29/09:30pm 7.9 6.0 5.0 82 1.3 N 4 6 2 3 1021.3 1021.3 0.0
29/09:00pm 8.2 6.3 5.0 80 1.4 NE 4 7 2 4 1021.3 1021.3 0.0
29/08:30pm 8.5 6.2 4.9 78 1.6 NE 6 9 3 5 1021.3 1021.3 0.0
29/08:00pm 8.8 6.5 4.6 75 1.8 NNE 6 9 3 5 1020.9 1020.9 0.0
29/07:30pm 9.0 6.1 4.8 75 1.9 NNE 9 13 5 7 1020.7 1020.7 0.0
29/07:00pm 9.3 5.7 4.9 74 2.0 NNE 13 19 7 10 1020.3 1020.3 0.0
29/06:30pm 9.5 6.3 4.9 73 2.1 NNE 11 20 6 11 1020.0 1020.0 0.0
29/06:00pm 10.1 6.4 4.7 69 2.4 NNE 13 17 7 9 1020.0 1020.0 0.0
29/05:30pm 10.3 7.0 4.5 67 2.6 NNE 11 19 6 10 1020.1 1020.1 0.0
29/05:00pm 10.4 7.3 5.4 71 2.3 NNE 11 13 6 7 1020.1 1020.1 0.0
29/04:30pm 10.8 8.0 5.3 69 2.5 NNE 9 13 5 7 1020.4 1020.4 0.0
29/04:00pm 11.6 8.6 3.9 59 3.4 N 9 15 5 8 1020.4 1020.4 0.0
29/03:30pm 12.0 9.0 4.0 58 3.6 N 9 13 5 7 1020.4 1020.4 0.0
29/03:00pm 11.9 9.1 5.1 63 3.1 N 9 13 5 7 1020.6 1020.6 0.0
29/02:30pm 11.5 8.8 5.6 67 2.7 NNE 9 13 5 7 1020.9 1020.9 0.0
29/02:00pm 11.3 8.2 5.4 67 2.7 NNE 11 15 6 8 1020.9 1020.9 0.0
29/01:30pm 11.2 8.5 5.5 68 2.6 NNE 9 15 5 8 1021.2 1021.2 0.0
29/01:00pm 11.1 8.1 5.8 70 2.4 NNE 11 17 6 9 1021.5 1021.5 0.0
29/12:30pm 10.9 8.6 5.7 70 2.4 N 7 13 4 7 1022.3 1022.3 0.0
29/12:00pm 10.3 8.1 6.1 75 1.9 N 7 13 4 7 1022.7 1022.7 0.0
29/11:30am 9.7 7.6 5.7 76 1.8 N 6 9 3 5 1023.4 1023.4 0.0
29/11:00am 9.1 6.6 4.9 75 1.9 N 7 11 4 6 1023.5 1023.5 0.0
29/10:30am 8.4 5.5 4.8 78 1.6 N 9 11 5 6 1023.9 1023.9 0.0
29/10:00am 8.3 5.8 4.7 78 1.6 N 7 9 4 5 1024.1 1024.1 0.0
29/09:30am 7.5 5.2 5.0 84 1.1 N 6 9 3 5 1024.5 1024.5 0.0
29/09:00am 5.8 3.9 5.1 95 0.3 N 4 6 2 3 1024.0 1024.0 0.0
29/08:30am 3.1 0.8 2.5 96 0.2 N 4 6 2 3 1024.2 1024.2 0.0
29/08:00am 2.2 -0.3 1.8 97 0.2 NNW 4 11 2 6 1024.1 1024.1 0.0
29/07:30am 2.0 0.3 1.6 97 0.2 CALM 0 0 0 0 1024.1 1024.1 0.0
29/07:00am 2.3 0.6 1.7 96 0.2 CALM 0 0 0 0 1024.2 1024.2 0.0
29/06:30am 2.7 0.7 2.3 97 0.2 NW 2 6 1 3 1024.1 1024.1 0.0
29/06:00am 2.9 1.3 2.3 96 0.2 CALM 0 0 0 0 1024.0 1024.0 0.0
29/05:30am 3.4 0.7 2.7 95 0.3 NW 6 7 3 4 1023.9 1023.9 0.0
29/05:00am 5.5 3.0 4.0 90 0.6 NNE 6 7 3 4 1023.7 1023.7 0.0
29/04:30am 6.5 4.0 4.8 89 0.7 NNE 7 9 4 5 1023.7 1023.7 0.0
29/04:00am 6.7 3.5 4.9 88 0.8 NE 11 13 6 7 1023.7 1023.7 0.0
29/03:30am 6.7 4.2 4.9 88 0.8 NNE 7 11 4 6 1024.3 1024.3 0.0
29/03:00am 6.7 3.8 4.7 87 0.9 NE 9 13 5 7 1024.4 1024.4 0.0
29/02:30am 6.8 3.9 4.6 86 1.0 NNE 9 13 5 7 1024.7 1024.7 0.0
29/02:00am 6.9 4.0 4.7 86 1.0 NNE 9 13 5 7 1024.5 1024.5 0.0
29/01:30am 6.7 4.2 4.9 88 0.8 NNE 7 9 4 5 1024.4 1024.4 0.0
29/01:00am 7.0 4.7 5.0 87 0.9 N 6 7 3 4 1024.8 1024.8 0.0
29/12:30am 7.8 5.4 5.1 83 1.2 N 7 11 4 6 1025.3 1025.3 0.0
29/12:00am 7.9 5.3 4.3 78 1.6 N 7 11 4 6 1025.8 1025.8 0.0
 
Date/Time
EST
Temp
°C
App
Temp
°C
Dew
Point
°C
Rel
Hum
%
Delta-T
°C
Wind Press
QNH
hPa
Press
MSL
hPa
Rain since
9am
mm
Dir  Spd
km/h
Gust
km/h
Spd
kts
Gust
kts
28/11:30pm 8.2 5.2 4.2 76 1.7 N 9 15 5 8 1026.0 1026.0 0.0
28/11:00pm 8.1 5.1 4.3 77 1.6 N 9 15 5 8 1026.2 1026.2 0.0
28/10:30pm 7.4 4.8 4.2 80 1.4 NNW 7 9 4 5 1026.5 1026.5 0.0
28/10:00pm 7.3 4.9 4.1 80 1.4 NW 6 7 3 4 1026.8 1026.8 0.0
28/09:30pm 7.5 5.1 4.5 81 1.3 NW 6 11 3 6 1026.9 1026.9 0.0
28/09:00pm 6.9 4.2 3.9 81 1.3 WNW 7 9 4 5 1026.7 1026.7 0.0
28/08:30pm 8.3 5.9 4.5 77 1.7 WNW 6 7 3 4 1027.0 1027.0 0.0
28/08:00pm 9.3 6.4 4.9 74 2.0 WNW 9 13 5 7 1027.0 1027.0 0.0
28/07:30pm 9.7 6.9 5.3 74 2.0 WNW 9 15 5 8 1027.0 1027.0 0.0
28/07:00pm 8.4 6.5 5.0 79 1.5 W 4 6 2 3 1027.0 1027.0 0.0
28/06:30pm 8.7 7.7 5.8 82 1.3 CALM 0 4 0 2 1026.8 1026.8 0.0
28/06:00pm 8.7 7.9 6.5 86 1.0 CALM 0 0 0 0 1026.8 1026.8 0.0
28/05:30pm 10.6 9.6 7.3 80 1.6 ENE 2 6 1 3 1026.5 1026.5 0.0
28/05:00pm 11.7 10.2 7.0 73 2.2 NE 4 6 2 3 1026.4 1026.4 0.0
28/04:30pm 12.8 10.9 6.8 67 2.9 NE 6 7 3 4 1026.4 1026.4 0.0
28/04:00pm 13.3 11.4 6.6 64 3.2 NE 6 9 3 5 1026.7 1026.7 0.0
28/03:30pm 13.3 11.3 6.4 63 3.3 NE 6 9 3 5 1027.0 1027.0 0.0
28/03:00pm 13.4 11.4 6.3 62 3.4 NNE 6 9 3 5 1027.5 1027.6 0.0
28/02:30pm 13.4 11.3 6.0 61 3.5 NNE 6 9 3 5 1027.8 1027.9 0.0
28/02:00pm 12.4 9.6 6.9 69 2.6 NNE 11 15 6 8 1028.0 1028.1 0.0
28/01:30pm 11.4 8.9 6.7 73 2.2 NNE 9 15 5 8 1028.7 1028.8 0.0
28/01:00pm 11.6 9.2 7.1 74 2.1 NNE 9 15 5 8 1029.0 1029.1 0.0
28/12:30pm 10.3 8.6 7.5 83 1.3 NE 6 9 3 5 1029.6 1029.7 0.0
28/12:00pm 9.2 6.5 7.2 87 0.9 NNE 11 15 6 8 1030.1 1030.2 0.0
28/11:30am 8.6 6.4 6.2 85 1.1 NNE 7 13 4 7 1030.6 1030.7 0.0
28/11:00am 8.2 6.0 5.3 82 1.3 NNE 6 9 3 5 1031.0 1031.1 0.0
28/10:30am 8.3 6.5 5.2 81 1.4 NNW 4 4 2 2 1031.5 1031.6 0.0
28/10:00am 8.0 6.2 5.3 83 1.2 NNW 4 6 2 3 1031.4 1031.5 0.0
28/09:30am 7.0 5.4 4.7 85 1.0 NW 2 4 1 2 1031.5 1031.6 0.0
28/09:00am 6.6 5.4 4.6 87 0.9 CALM 0 0 0 0 1031.7 1031.8 0.0
28/08:30am 5.2 3.5 4.0 92 0.5 NNW 2 2 1 1 1031.7 1031.8 0.0
28/08:00am 4.9 3.2 3.9 93 0.4 NNW 2 6 1 3 1031.8 1031.9 0.0
28/07:30am 4.8 3.4 3.8 93 0.4 CALM 0 0 0 0 1031.6 1031.7 0.0
28/07:00am 4.9 3.5 3.6 91 0.5 CALM 0 0 0 0 1031.5 1031.6 0.0
28/06:30am 5.4 2.9 3.9 90 0.6 NNW 6 7 3 4 1031.3 1031.4 0.0
28/06:00am 5.5 2.8 3.8 89 0.7 NNW 7 11 4 6 1030.9 1031.0 0.0
28/05:30am 5.7 2.7 4.0 89 0.7 NW 9 11 5 6 1030.9 1031.0 0.0
28/05:00am 5.7 3.3 4.2 90 0.6 NW 6 9 3 5 1031.0 1031.1 0.0
28/04:30am 5.8 3.2 4.3 90 0.6 NW 7 11 4 6 1031.2 1031.3 0.0
28/04:00am 5.7 3.1 4.3 91 0.6 NW 7 11 4 6 1031.2 1031.3 0.0
28/03:30am 6.0 3.1 4.5 90 0.6 NW 9 13 5 7 1031.4 1031.5 0.0
28/03:00am 6.0 3.5 4.6 91 0.6 NW 7 11 4 6 1031.7 1031.8 0.0
28/02:30am 6.3 3.8 4.9 91 0.6 NW 7 11 4 6 1031.9 1032.0 0.0
28/02:00am 6.4 3.5 4.9 90 0.6 NW 9 13 5 7 1031.9 1032.0 0.0
28/01:30am 6.4 3.9 4.9 90 0.7 NW 7 13 4 7 1031.9 1032.0 0.0
28/01:00am 6.7 3.5 5.2 90 0.7 NW 11 15 6 8 1032.0 1032.1 0.0
28/12:30am 6.9 4.2 5.4 90 0.7 NW 9 15 5 8 1032.2 1032.3 0.0
28/12:00am 6.7 4.0 5.5 92 0.5 NW 9 13 5 7 1032.3 1032.4 0.0
 
Date/Time
EST
Temp
°C
App
Temp
°C
Dew
Point
°C
Rel
Hum
%
Delta-T
°C
Wind Press
QNH
hPa
Press
MSL
hPa
Rain since
9am
mm
Dir  Spd
km/h
Gust
km/h
Spd
kts
Gust
kts
27/11:30pm 6.7 4.4 5.5 92 0.5 NW 7 9 4 5 1032.5 1032.6 0.0
27/11:00pm 6.8 4.7 5.7 93 0.5 NW 6 9 3 5 1032.5 1032.6 0.0
27/10:30pm 7.2 5.1 5.8 91 0.6 NW 6 7 3 4 1032.6 1032.7 0.0
27/10:00pm 7.8 5.7 5.9 88 0.8 WNW 6 6 3 3 1032.8 1032.9 0.0
27/09:30pm 8.3 6.6 6.1 86 1.0 WNW 4 6 2 3 1033.0 1033.1 0.0

Latest Capital City Observations: Canberra | Sydney | Melbourne | Brisbane | Adelaide | Perth | Hobart | Darwin

Other formats

Comma delimited format used in spreadsheet applications
http://www.bom.gov.au/fwo/IDV60901/IDV60901.94857.axf

JavaScript Object Notation format (JSON) in row-major order
http://www.bom.gov.au/fwo/IDV60901/IDV60901.94857.json

Data quality

Most of these data are generated automatically and are frequently updated. Quality checks on data are not normally performed. It is possible for incorrect values to appear. Refer to information at About Latest Weather Observations and please check the disclaimer before using these data.